createdAt,value
2023-01-18T00:00:45.223Z,84.05
2023-01-18T00:05:47.382Z,86.84
2023-01-18T00:10:46.531Z,87.15
2023-01-18T00:15:47.737Z,86.63
2023-01-18T00:20:47.870Z,85.86
2023-01-18T00:25:48.993Z,84.53
2023-01-18T00:30:51.450Z,83.80
2023-01-18T00:35:50.615Z,85.80
2023-01-18T00:40:51.760Z,87.23
2023-01-18T00:45:52.961Z,88.17
2023-01-18T00:50:55.148Z,88.28
2023-01-18T00:55:54.282Z,88.39
2023-01-18T01:00:55.544Z,88.39
2023-01-18T01:05:56.731Z,89.01
2023-01-18T01:10:57.870Z,89.22
2023-01-18T01:15:59.009Z,87.51
2023-01-18T01:21:01.162Z,87.30
2023-01-18T01:26:00.313Z,87.09
2023-01-18T01:31:01.493Z,87.82
2023-01-18T01:36:02.641Z,87.82
2023-01-18T01:41:03.807Z,88.39
2023-01-18T01:46:05.271Z,88.70
2023-01-18T01:51:05.412Z,88.49
2023-01-18T01:56:05.580Z,89.11
2023-01-18T02:01:04.787Z,88.59
2023-01-18T02:06:06.011Z,88.03
2023-01-18T02:11:07.148Z,88.34
2023-01-18T02:16:08.312Z,89.01
2023-01-18T02:21:09.507Z,89.32
2023-01-18T02:26:10.731Z,89.22
2023-01-18T02:31:11.955Z,89.43
2023-01-18T02:36:13.161Z,89.64
2023-01-18T02:41:14.377Z,89.39
2023-01-18T02:46:16.702Z,88.65
2023-01-18T02:51:15.969Z,88.87
2023-01-18T02:56:17.148Z,88.65
2023-01-18T03:01:18.410Z,86.63
2023-01-18T03:06:22.580Z,84.26
2023-01-18T03:11:19.801Z,83.01
2023-01-18T03:16:20.950Z,82.55
2023-01-18T03:21:23.098Z,81.82
2023-01-18T03:26:22.265Z,81.51
2023-01-18T03:31:23.464Z,85.44
2023-01-18T03:36:25.666Z,83.63
2023-01-18T03:41:24.864Z,82.80
2023-01-18T03:46:26.033Z,81.51
2023-01-18T03:51:27.170Z,81.20
2023-01-18T03:56:28.297Z,80.33
2023-01-18T04:01:29.603Z,79.18
2023-01-18T04:06:30.772Z,78.63
2023-01-18T04:11:31.957Z,78.20
2023-01-18T04:16:33.090Z,77.69
2023-01-18T04:21:35.229Z,77.58
2023-01-18T04:26:34.428Z,77.37
2023-01-18T04:31:35.629Z,78.97
2023-01-18T04:36:36.840Z,82.28
2023-01-18T04:41:38.010Z,84.61
2023-01-18T04:46:40.262Z,83.67
2023-01-18T04:51:39.447Z,83.22
2023-01-18T04:56:40.728Z,83.53
2023-01-18T05:01:41.916Z,83.42
2023-01-18T05:06:43.094Z,81.34
2023-01-18T05:11:44.214Z,80.68
2023-01-18T05:16:46.399Z,81.62
2023-01-18T05:21:45.575Z,82.45
2023-01-18T05:26:46.726Z,80.57
2023-01-18T05:31:47.996Z,80.68
2023-01-18T05:36:50.161Z,79.70
2023-01-18T05:41:50.289Z,79.49
2023-01-18T05:46:50.509Z,79.18
2023-01-18T05:51:50.657Z,79.04
2023-01-18T05:56:51.879Z,79.14
2023-01-18T06:01:51.053Z,78.42
2023-01-18T06:06:52.203Z,77.75
2023-01-18T06:11:53.343Z,77.44
2023-01-18T06:16:54.520Z,78.17
2023-01-18T06:21:56.666Z,78.90
2023-01-18T06:26:54.802Z,79.46
2023-01-18T06:31:56.006Z,80.54
2023-01-18T06:36:57.174Z,81.37
2023-01-18T06:42:01.337Z,81.58
2023-01-18T06:46:58.476Z,80.95
2023-01-18T06:51:59.616Z,80.40
2023-01-18T06:57:01.762Z,79.87
2023-01-18T07:02:01.030Z,80.40
2023-01-18T07:07:03.177Z,79.25
2023-01-18T07:12:02.304Z,79.66
2023-01-18T07:17:03.447Z,78.73
2023-01-18T07:22:04.589Z,79.56
2023-01-18T07:27:06.699Z,79.77
2023-01-18T07:32:05.849Z,79.25
2023-01-18T07:37:07.000Z,78.80
2023-01-18T07:42:08.138Z,76.82
2023-01-18T07:47:09.274Z,75.64
2023-01-18T07:52:10.456Z,75.95
2023-01-18T07:57:11.568Z,75.40
2023-01-18T08:02:12.779Z,74.57
2023-01-18T08:07:13.954Z,75.05
2023-01-18T08:12:15.160Z,73.77
2023-01-18T08:17:16.279Z,73.97
2023-01-18T08:22:17.399Z,74.08
2023-01-18T08:27:19.538Z,74.18
2023-01-18T08:32:18.688Z,74.29
2023-01-18T08:37:19.823Z,74.70
2023-01-18T08:42:20.933Z,75.57
2023-01-18T08:47:23.053Z,75.15
2023-01-18T08:52:22.202Z,75.85
2023-01-18T08:57:23.297Z,76.37
2023-01-18T09:02:25.494Z,78.13
2023-01-18T09:07:25.606Z,78.34
2023-01-18T09:12:24.705Z,78.41
2023-01-18T09:17:27.868Z,77.12
2023-01-18T09:22:27.100Z,75.09
2023-01-18T09:27:32.095Z,71.36
2023-01-18T09:32:32.199Z,70.36
2023-01-18T09:37:30.297Z,70.81
2023-01-18T09:42:30.589Z,70.36
2023-01-18T09:47:29.746Z,69.84
2023-01-18T09:52:30.849Z,70.05
2023-01-18T09:57:33.077Z,72.56
2023-01-18T10:02:32.274Z,74.91
2023-01-18T10:07:33.421Z,75.09
2023-01-18T10:12:35.553Z,76.06
2023-01-18T10:17:34.884Z,76.64
2023-01-18T10:22:39.895Z,76.85
2023-01-18T10:27:38.039Z,77.09
2023-01-18T10:32:37.210Z,80.36
2023-01-18T10:37:38.316Z,82.17
2023-01-18T10:42:40.539Z,82.19
2023-01-18T10:47:39.696Z,83.14
2023-01-18T10:52:41.961Z,84.94
2023-01-18T10:57:41.115Z,85.04
2023-01-18T11:02:42.251Z,86.91
2023-01-18T11:07:43.441Z,86.33
2023-01-18T11:12:46.588Z,84.88
2023-01-18T11:17:46.694Z,84.50
2023-01-18T11:22:45.895Z,86.26
2023-01-18T11:27:46.994Z,86.12
2023-01-18T11:32:48.118Z,83.48
2023-01-18T11:37:50.381Z,84.50
2023-01-18T11:42:49.775Z,84.91
2023-01-18T11:47:51.894Z,85.34
2023-01-18T11:52:51.052Z,85.28
2023-01-18T11:57:53.292Z,85.69
2023-01-18T12:02:53.448Z,89.31
2023-01-18T12:07:52.900Z,91.28
2023-01-18T12:12:56.019Z,93.52
2023-01-18T12:18:11.719Z,94.45
2023-01-18T12:22:56.156Z,94.66
2023-01-18T12:27:55.292Z,96.37
2023-01-18T12:32:57.921Z,97.72
2023-01-18T12:37:57.572Z,98.29
2023-01-18T12:42:56.903Z,98.34
2023-01-18T12:47:58.415Z,97.72
2023-01-18T12:52:57.707Z,96.06
2023-01-18T12:57:59.296Z,96.58
2023-01-18T13:02:58.680Z,93.93
2023-01-18T13:08:01.019Z,92.18
2023-01-18T13:13:00.309Z,89.06
2023-01-18T13:18:01.736Z,88.29
2023-01-18T13:23:01.985Z,86.98
2023-01-18T13:28:01.389Z,88.09
2023-01-18T13:33:01.783Z,87.29
2023-01-18T13:38:02.319Z,87.60
2023-01-18T13:43:01.588Z,88.54
2023-01-18T13:48:03.012Z,88.23
2023-01-18T13:53:02.722Z,88.71
2023-01-18T13:58:02.391Z,87.50
2023-01-18T14:03:01.946Z,87.71
2023-01-18T14:08:03.838Z,87.50
2023-01-18T14:13:02.650Z,87.19
2023-01-18T14:18:03.971Z,88.54
2023-01-18T14:23:04.116Z,88.12
2023-01-18T14:28:03.223Z,87.81
2023-01-18T14:33:04.358Z,88.23
2023-01-18T14:38:17.523Z,89.10
2023-01-18T14:43:06.474Z,89.62
2023-01-18T14:48:08.581Z,89.20
2023-01-18T14:53:08.708Z,89.87
2023-01-18T14:58:07.856Z,89.62
2023-01-18T15:03:08.993Z,88.89
2023-01-18T15:08:10.139Z,88.37
2023-01-18T15:13:11.336Z,89.25
2023-01-18T15:18:13.483Z,90.39
2023-01-18T15:23:12.628Z,92.31
2023-01-18T15:28:23.295Z,91.68
2023-01-18T15:33:14.702Z,90.44
2023-01-18T15:38:13.845Z,93.24
2023-01-18T15:43:15.994Z,93.91
2023-01-18T15:48:15.098Z,91.00
2023-01-18T15:53:17.235Z,91.68
2023-01-18T15:58:16.376Z,92.35
2023-01-18T16:03:17.534Z,92.46
2023-01-18T16:08:23.297Z,93.23
2023-01-18T16:13:18.697Z,93.44
2023-01-18T16:18:19.794Z,93.44
2023-01-18T16:23:23.062Z,92.81
2023-01-18T16:28:22.321Z,93.65
2023-01-18T16:33:23.443Z,94.63
2023-01-18T16:38:24.828Z,94.84
2023-01-18T16:43:24.038Z,95.00
2023-01-18T16:48:25.376Z,94.31
2023-01-18T16:53:26.625Z,94.73
2023-01-18T16:58:28.815Z,95.72
2023-01-18T17:03:29.195Z,95.25
2023-01-18T17:08:29.683Z,95.78
2023-01-18T17:13:28.898Z,95.42
2023-01-18T17:18:30.335Z,94.48
2023-01-18T17:23:29.743Z,94.85
2023-01-18T17:28:32.991Z,95.00
2023-01-18T17:33:31.135Z,94.64
2023-01-18T17:43:34.249Z,94.37
2023-01-18T17:48:34.795Z,95.04
2023-01-18T17:53:34.154Z,96.13
2023-01-18T17:58:35.641Z,97.99
2023-01-18T18:03:35.071Z,98.83
2023-01-18T18:08:34.328Z,98.31
2023-01-18T18:13:35.704Z,98.10
2023-01-18T18:18:35.269Z,98.05
2023-01-18T18:23:38.458Z,97.32
2023-01-18T18:28:34.715Z,97.22
2023-01-18T18:33:37.113Z,96.70
2023-01-18T18:38:37.222Z,96.17
2023-01-18T18:43:39.380Z,96.38
2023-01-18T18:48:36.893Z,96.28
2023-01-18T18:53:38.591Z,97.01
2023-01-18T18:58:37.423Z,99.40
2023-01-18T19:03:38.887Z,99.99
2023-01-18T19:08:38.136Z,99.99
2023-01-18T19:13:40.153Z,99.99
2023-01-18T19:18:40.441Z,99.99
2023-01-18T19:23:39.666Z,99.99
2023-01-18T19:28:44.780Z,99.77
2023-01-18T19:33:43.278Z,98.41
2023-01-18T19:38:46.711Z,97.99
2023-01-18T19:43:42.490Z,97.89
2023-01-18T19:48:43.997Z,97.43
2023-01-18T19:53:44.396Z,97.37
2023-01-18T19:58:43.895Z,96.43
2023-01-18T20:03:43.291Z,97.27
2023-01-18T20:08:44.470Z,97.01
2023-01-18T20:13:45.886Z,96.07
2023-01-18T20:18:45.113Z,95.34
2023-01-18T20:23:46.521Z,95.03
2023-01-18T20:28:46.766Z,95.28
2023-01-18T20:33:46.614Z,95.07
2023-01-18T20:38:51.986Z,92.83
2023-01-18T20:43:49.334Z,93.67
2023-01-18T20:48:50.575Z,93.46
2023-01-18T20:53:51.765Z,93.15
2023-01-18T20:58:53.094Z,92.31
2023-01-18T21:03:54.437Z,92.04
2023-01-18T21:08:55.836Z,92.10
2023-01-18T21:13:55.023Z,91.69
2023-01-18T21:18:57.132Z,91.27
2023-01-18T21:23:56.486Z,91.79
2023-01-18T21:28:58.671Z,91.69
2023-01-18T21:33:58.774Z,86.74
2023-01-18T21:38:57.874Z,89.81
2023-01-18T21:43:59.003Z,90.33
2023-01-18T21:49:00.200Z,89.49
2023-01-18T21:54:02.283Z,89.18
2023-01-18T21:59:01.507Z,87.71
2023-01-18T22:04:03.698Z,85.88
2023-01-18T22:09:04.863Z,83.64
2023-01-18T22:14:04.071Z,88.65
2023-01-18T22:19:05.166Z,88.80
2023-01-18T22:24:06.362Z,86.46
2023-01-18T22:29:07.516Z,88.76
2023-01-18T22:34:08.690Z,90.12
2023-01-18T22:39:12.066Z,90.06
2023-01-18T22:44:08.965Z,90.47
2023-01-18T22:49:10.060Z,91.66
2023-01-18T22:54:11.162Z,91.03
2023-01-18T22:59:12.431Z,90.52
2023-01-18T23:04:13.728Z,89.84
2023-01-18T23:09:14.829Z,91.14
2023-01-18T23:14:16.018Z,91.66
2023-01-18T23:19:17.109Z,91.03
2023-01-18T23:24:18.212Z,90.37
2023-01-18T23:29:19.421Z,89.84
2023-01-18T23:34:20.543Z,89.78
2023-01-18T23:39:22.651Z,89.36
2023-01-18T23:44:21.755Z,88.11
2023-01-18T23:49:22.850Z,86.75
2023-01-18T23:54:23.955Z,86.23
2023-01-18T23:59:25.051Z,88.17
